FYWH/WDH METAR and TAF weather

Enter ICAO airport designator
Station Type Date Time Source
FYWH METAR 2019/08/23 17:00 UTC NOAA

FYWH 231700Z 09004KT CAVOK 19/M10 Q1030 NOSIG


Station Type Date Time Source
FYWH Decoded METAR 2019/08/23 17:00 UTC NOAA

Station name not available
Aug 23, 2019 - 01:00 PM EDT / 2019.08.23 1700 UTC
Wind: from the E (090 degrees) at 5 MPH (4 KT):0
Visibility: greater than 7 mile(s):0
Temperature: 66 F (19 C)
Dew Point: 14 F (-10 C)
Relative Humidity: 13%
Pressure (altimeter): 30.42 in. Hg (1030 hPa)
ob: FYWH 231700Z 09004KT CAVOK 19/M10 Q1030 NOSIG
cycle: 17

Station Type Date Time Source
FYWH TAF 2019/08/23 18:18 UTC NOAA

TAF FYWH 231600Z 2318/2418 08009KT CAVOK
BECMG 2320/2322 27008KT
BECMG 2408/2410 04016KT

Example: see airport list